Time;durP1;ratioP1;P1;durP2;ratioP2;P2;SDS_P1;SDS_P2;PMS_P1;PMS_P2;Temp;Humidity;BMP_temperature;BMP_pressure;BME280_temperature;BME280_humidity;BME280_pressure;Samples;Min_cycle;Max_cycle;Signal;HPM_P1;HPM_P2
2023/08/11 00:01:07;;;;;;;2.13;1.17;;;21.30;72.50;;;;;;5073840;28;20056;-62
2023/08/11 00:03:32;;;;;;;2.40;1.45;;;21.30;72.40;;;;;;5072975;28;20048;-62
2023/08/11 00:05:58;;;;;;;2.25;1.30;;;21.30;72.40;;;;;;5073317;28;20503;-62
2023/08/11 00:08:24;;;;;;;1.75;0.95;;;21.30;72.40;;;;;;5073025;28;20040;-62
2023/08/11 00:10:51;;;;;;;2.78;1.10;;;21.30;72.50;;;;;;5073114;28;20392;-62
2023/08/11 00:13:17;;;;;;;2.55;1.42;;;21.30;72.40;;;;;;5073975;28;20048;-62
2023/08/11 00:15:43;;;;;;;3.58;1.30;;;21.30;72.40;;;;;;5072471;28;20037;-62
2023/08/11 00:18:09;;;;;;;2.25;1.27;;;21.30;72.40;;;;;;5073558;28;20063;-62
2023/08/11 00:20:35;;;;;;;2.88;1.38;;;21.30;72.40;;;;;;5073541;28;20472;-62
2023/08/11 00:23:00;;;;;;;2.90;1.45;;;21.30;72.40;;;;;;5071355;28;20114;-62
2023/08/11 00:25:26;;;;;;;2.78;1.38;;;21.30;72.40;;;;;;5073441;28;20490;-63
2023/08/11 00:27:51;;;;;;;2.80;1.35;;;21.30;72.40;;;;;;5073532;28;20220;-62
2023/08/11 00:30:18;;;;;;;2.42;1.38;;;21.30;72.40;;;;;;5072663;28;20041;-62
2023/08/11 00:32:45;;;;;;;2.53;1.30;;;21.30;72.40;;;;;;5072913;28;20049;-62
2023/08/11 00:35:11;;;;;;;2.85;1.30;;;21.30;72.40;;;;;;5072633;28;20076;-62
2023/08/11 00:37:36;;;;;;;1.83;1.10;;;21.30;72.40;;;;;;5072368;28;20134;-62
2023/08/11 00:40:04;;;;;;;2.67;1.27;;;21.30;72.40;;;;;;5073186;28;20441;-62
2023/08/11 00:42:30;;;;;;;2.05;1.20;;;21.30;72.40;;;;;;5073354;28;20068;-62
2023/08/11 00:44:58;;;;;;;2.85;1.27;;;21.30;72.30;;;;;;5072296;28;20464;-62
2023/08/11 00:47:23;;;;;;;2.67;1.40;;;21.30;72.40;;;;;;5073297;28;20040;-62
2023/08/11 00:49:49;;;;;;;2.20;1.23;;;21.30;72.30;;;;;;5073112;28;20115;-62
2023/08/11 00:52:15;;;;;;;2.47;1.20;;;21.30;72.30;;;;;;5071197;28;20502;-62
2023/08/11 00:54:41;;;;;;;2.15;1.20;;;21.30;72.40;;;;;;5071578;28;20067;-62
2023/08/11 00:57:06;;;;;;;2.45;1.40;;;21.20;72.30;;;;;;5071728;28;20480;-62
2023/08/11 00:59:32;;;;;;;2.03;1.40;;;21.20;72.30;;;;;;5071055;28;20040;-62
2023/08/11 01:01:58;;;;;;;2.67;1.40;;;21.30;72.30;;;;;;5071028;28;20455;-62
2023/08/11 01:04:23;;;;;;;1.92;1.10;;;21.20;72.20;;;;;;5071519;28;20040;-62
2023/08/11 01:06:57;;;;;;;2.33;1.30;;;21.20;72.30;;;;;;5070881;28;20432;-61
2023/08/11 01:09:32;;;;;;;2.15;1.17;;;21.30;72.30;;;;;;5071900;28;20043;-62
2023/08/11 01:12:29;;;;;;;2.17;1.30;;;21.20;72.20;;;;;;5071682;28;20040;-62
2023/08/11 01:15:19;;;;;;;2.10;1.30;;;21.20;72.20;;;;;;5056431;28;20101;-62
2023/08/11 01:17:45;;;;;;;2.22;1.38;;;21.20;72.20;;;;;;5072470;28;20055;-62
2023/08/11 01:20:11;;;;;;;2.15;1.25;;;21.20;72.30;;;;;;5053664;28;20037;-61
2023/08/11 01:22:39;;;;;;;2.50;1.40;;;21.20;72.20;;;;;;5072306;28;20041;-62
2023/08/11 01:25:08;;;;;;;1.73;1.30;;;21.20;72.20;;;;;;5054600;28;20050;-61
2023/08/11 01:27:49;;;;;;;2.63;1.30;;;21.20;72.20;;;;;;5070456;28;20037;-61
2023/08/11 01:30:14;;;;;;;2.83;1.50;;;21.20;72.20;;;;;;5071134;28;20056;-62
2023/08/11 01:32:40;;;;;;;2.17;1.10;;;21.20;72.20;;;;;;5071927;28;20056;-62
2023/08/11 01:35:06;;;;;;;2.30;1.40;;;21.20;72.20;;;;;;5071518;28;20044;-61
2023/08/11 01:37:32;;;;;;;2.03;1.30;;;21.20;72.20;;;;;;5072263;28;20606;-61
2023/08/11 01:39:58;;;;;;;1.98;1.33;;;21.20;72.20;;;;;;5071056;28;20110;-62
2023/08/11 01:42:24;;;;;;;3.65;1.30;;;21.20;72.10;;;;;;5072550;28;20048;-62
2023/08/11 01:44:50;;;;;;;2.75;1.20;;;21.20;72.10;;;;;;5072225;28;20048;-61
2023/08/11 01:47:15;;;;;;;2.13;1.20;;;21.20;72.10;;;;;;5073618;28;20063;-62
2023/08/11 01:49:41;;;;;;;2.83;1.50;;;21.20;72.10;;;;;;5079029;28;20040;-62
2023/08/11 01:52:08;;;;;;;1.75;1.20;;;21.20;72.70;;;;;;5077767;28;20040;-61
2023/08/11 01:54:33;;;;;;;1.95;1.17;;;21.20;72.10;;;;;;5076738;28;20496;-62
2023/08/11 01:56:59;;;;;;;2.65;1.50;;;21.20;72.10;;;;;;5077899;28;20041;-62
2023/08/11 01:59:25;;;;;;;1.67;1.20;;;21.20;72.10;;;;;;5078754;28;20059;-62
2023/08/11 02:01:51;;;;;;;3.13;1.45;;;21.20;72.10;;;;;;5077132;28;20048;-61
2023/08/11 02:04:17;;;;;;;2.38;1.25;;;21.20;72.10;;;;;;5078509;28;20056;-62
2023/08/11 02:06:45;;;;;;;1.40;1.02;;;21.10;72.00;;;;;;5060152;28;20506;-61
2023/08/11 02:09:12;;;;;;;3.03;1.48;;;21.10;72.00;;;;;;5076742;28;20432;-62
2023/08/11 02:11:38;;;;;;;2.58;1.30;;;21.10;72.10;;;;;;5076908;28;20040;-62
2023/08/11 02:14:04;;;;;;;2.45;1.27;;;21.10;72.10;;;;;;5078918;28;20060;-62
2023/08/11 02:16:30;;;;;;;1.95;1.20;;;21.10;72.30;;;;;;5071505;28;20426;-62
2023/08/11 02:18:56;;;;;;;2.28;1.30;;;21.10;72.00;;;;;;5065458;28;20535;-62
2023/08/11 02:21:21;;;;;;;1.85;1.00;;;21.20;72.10;;;;;;5069361;28;20512;-62
2023/08/11 02:23:47;;;;;;;2.15;1.30;;;21.10;72.00;;;;;;5076192;28;20043;-62
2023/08/11 02:26:14;;;;;;;3.00;1.20;;;21.10;72.10;;;;;;5077477;28;20131;-62
2023/08/11 02:28:40;;;;;;;2.25;1.30;;;21.20;72.10;;;;;;5078408;28;20048;-61
2023/08/11 02:31:08;;;;;;;1.98;1.15;;;21.10;72.10;;;;;;5077515;28;20044;-62
2023/08/11 02:33:34;;;;;;;1.40;1.20;;;21.10;72.00;;;;;;5078421;28;20140;-62
2023/08/11 02:36:00;;;;;;;3.75;1.60;;;21.10;72.00;;;;;;5078299;28;20045;-62
2023/08/11 02:38:25;;;;;;;1.60;1.20;;;21.10;72.00;;;;;;5077849;28;20052;-62
2023/08/11 02:40:51;;;;;;;2.22;1.15;;;21.10;72.00;;;;;;5078413;28;20106;-62
2023/08/11 02:43:17;;;;;;;1.63;1.25;;;21.10;72.00;;;;;;5077673;28;20087;-62
2023/08/11 02:45:42;;;;;;;2.17;1.45;;;21.10;72.00;;;;;;5076990;28;20040;-62
2023/08/11 02:48:08;;;;;;;2.67;1.48;;;21.10;72.00;;;;;;5078396;28;20123;-62
2023/08/11 02:50:33;;;;;;;1.92;1.40;;;21.10;72.00;;;;;;5077015;28;20063;-62
2023/08/11 02:52:59;;;;;;;1.67;1.23;;;21.10;72.00;;;;;;5078278;28;20052;-62
2023/08/11 02:55:25;;;;;;;2.38;1.40;;;21.10;72.00;;;;;;5078632;28;20036;-62
2023/08/11 02:57:50;;;;;;;2.05;1.30;;;21.10;72.00;;;;;;5075145;28;20047;-62
2023/08/11 03:00:17;;;;;;;2.35;1.30;;;21.10;72.00;;;;;;5073163;28;20083;-62
2023/08/11 03:02:45;;;;;;;1.70;1.17;;;21.10;72.00;;;;;;5074870;28;20052;-61
2023/08/11 03:05:11;;;;;;;1.63;1.20;;;21.00;71.90;;;;;;5074494;28;20040;-62
2023/08/11 03:07:38;;;;;;;2.90;1.10;;;21.10;72.00;;;;;;5074655;28;20396;-62
2023/08/11 03:10:04;;;;;;;2.17;1.40;;;21.10;72.00;;;;;;5073687;28;20134;-62
2023/08/11 03:12:30;;;;;;;1.55;1.20;;;21.10;72.00;;;;;;5073225;28;20047;-61
2023/08/11 03:14:56;;;;;;;1.95;1.30;;;21.00;71.90;;;;;;5074836;28;20487;-62
2023/08/11 03:17:22;;;;;;;1.70;1.08;;;21.00;72.00;;;;;;5074793;28;20052;-61
2023/08/11 03:19:47;;;;;;;2.05;1.40;;;21.00;71.90;;;;;;5074189;28;20488;-61
2023/08/11 03:22:13;;;;;;;2.47;1.40;;;21.10;72.00;;;;;;5074675;28;20127;-61
2023/08/11 03:24:39;;;;;;;2.53;1.42;;;21.10;72.00;;;;;;5074432;28;20049;-62
2023/08/11 03:27:06;;;;;;;2.20;1.25;;;21.00;72.00;;;;;;5073212;28;20080;-61
2023/08/11 03:29:31;;;;;;;1.88;1.58;;;21.00;72.00;;;;;;5073052;28;20475;-61
2023/08/11 03:31:57;;;;;;;2.47;1.05;;;21.10;72.00;;;;;;5073983;28;20075;-61
2023/08/11 03:34:23;;;;;;;1.83;1.17;;;21.10;72.00;;;;;;5073555;28;20084;-61
2023/08/11 03:36:48;;;;;;;1.98;1.15;;;21.00;72.00;;;;;;5074257;28;20123;-61
2023/08/11 03:39:14;;;;;;;2.55;1.40;;;21.00;72.00;;;;;;5073920;28;20079;-62
2023/08/11 03:41:39;;;;;;;2.08;1.10;;;21.00;72.00;;;;;;5073455;28;20043;-62
2023/08/11 03:44:05;;;;;;;1.98;1.15;;;21.00;71.90;;;;;;5073121;28;20067;-61
2023/08/11 03:46:31;;;;;;;1.95;1.20;;;21.00;72.00;;;;;;5072175;28;20044;-62
2023/08/11 03:48:57;;;;;;;2.67;1.55;;;21.00;72.00;;;;;;5072491;28;20079;-62
2023/08/11 03:51:22;;;;;;;1.75;1.27;;;21.00;71.90;;;;;;5074275;28;20264;-61
2023/08/11 03:53:48;;;;;;;2.20;1.45;;;21.00;71.90;;;;;;5073423;28;20115;-62
2023/08/11 03:56:13;;;;;;;2.08;1.30;;;21.00;71.90;;;;;;5074190;28;20111;-62
2023/08/11 03:58:39;;;;;;;1.73;1.20;;;21.00;71.90;;;;;;5072700;28;20040;-62
2023/08/11 04:01:05;;;;;;;1.80;1.50;;;21.00;71.90;;;;;;5068983;28;20041;-61
2023/08/11 04:03:31;;;;;;;2.13;1.40;;;21.00;71.90;;;;;;5065242;28;20422;-62
2023/08/11 04:05:59;;;;;;;2.22;1.58;;;21.00;71.90;;;;;;5071003;28;20071;-61
2023/08/11 04:08:26;;;;;;;2.30;1.20;;;21.00;71.90;;;;;;5073180;28;20128;-61
2023/08/11 04:10:53;;;;;;;2.45;1.35;;;21.00;71.90;;;;;;5073224;28;20078;-61
2023/08/11 04:13:18;;;;;;;2.50;1.13;;;21.00;71.90;;;;;;5073926;28;20057;-61
2023/08/11 04:15:45;;;;;;;2.33;1.42;;;21.00;71.90;;;;;;5072352;28;20515;-61
2023/08/11 04:18:12;;;;;;;1.77;1.40;;;21.00;71.90;;;;;;5073307;28;20553;-62
2023/08/11 04:20:38;;;;;;;2.20;1.40;;;21.00;71.90;;;;;;5073730;28;20066;-61
2023/08/11 04:23:03;;;;;;;2.10;1.48;;;21.00;71.80;;;;;;5072843;28;20385;-62
2023/08/11 04:25:29;;;;;;;2.65;1.60;;;21.00;71.90;;;;;;5073714;28;20044;-62
2023/08/11 04:27:55;;;;;;;2.03;1.30;;;21.00;71.90;;;;;;5073364;28;20044;-61
2023/08/11 04:30:21;;;;;;;2.15;1.30;;;21.00;71.90;;;;;;5071499;28;20040;-61
2023/08/11 04:32:46;;;;;;;1.80;1.20;;;20.90;71.80;;;;;;5072658;28;20052;-61
2023/08/11 04:35:12;;;;;;;1.92;1.42;;;20.90;71.90;;;;;;5073642;28;20052;-62
2023/08/11 04:37:39;;;;;;;2.45;1.50;;;21.00;71.90;;;;;;5072361;28;20052;-61
2023/08/11 04:40:11;;;;;;;1.98;1.13;;;21.00;71.90;;;;;;5073505;28;20040;-61
2023/08/11 04:42:37;;;;;;;1.70;1.30;;;20.90;71.90;;;;;;5072736;28;20048;-61
2023/08/11 04:45:03;;;;;;;2.08;1.50;;;20.90;71.90;;;;;;5073008;28;20059;-62
2023/08/11 04:47:29;;;;;;;1.90;1.40;;;20.90;71.90;;;;;;5073252;28;20077;-62
2023/08/11 04:49:55;;;;;;;2.45;1.20;;;20.90;71.90;;;;;;5070672;28;20044;-61
2023/08/11 04:52:21;;;;;;;1.70;1.20;;;20.90;71.90;;;;;;5071604;28;20183;-62
2023/08/11 04:54:46;;;;;;;1.48;1.10;;;20.90;71.90;;;;;;5071747;28;20044;-62
2023/08/11 04:57:12;;;;;;;1.83;1.27;;;20.90;71.90;;;;;;5071882;28;20099;-61
2023/08/11 04:59:38;;;;;;;3.42;1.60;;;20.90;71.90;;;;;;5072930;28;20448;-61
2023/08/11 05:02:03;;;;;;;2.42;1.40;;;20.90;71.90;;;;;;5071313;28;20060;-61
2023/08/11 05:04:29;;;;;;;2.38;1.30;;;21.00;71.90;;;;;;5072009;28;20075;-61
2023/08/11 05:06:54;;;;;;;2.45;1.58;;;20.90;71.90;;;;;;5072628;28;20388;-62
2023/08/11 05:09:20;;;;;;;1.80;1.40;;;21.00;72.00;;;;;;5073140;28;20117;-62
2023/08/11 05:11:45;;;;;;;2.80;1.42;;;21.00;72.00;;;;;;5071601;28;20391;-61
2023/08/11 05:14:14;;;;;;;1.80;1.15;;;21.00;72.00;;;;;;5072787;28;20047;-61
2023/08/11 05:16:39;;;;;;;;;;;21.00;72.10;;;;;;5071434;28;20036;-61
2023/08/11 05:19:05;;;;;;;2.30;1.42;;;21.00;72.00;;;;;;5072095;28;20253;-61
2023/08/11 05:21:30;;;;;;;3.08;1.77;;;21.00;72.10;;;;;;5072290;28;20043;-61
2023/08/11 05:23:56;;;;;;;3.70;1.30;;;21.00;72.10;;;;;;5071077;28;20380;-62
2023/08/11 05:26:22;;;;;;;3.42;1.60;;;21.00;72.20;;;;;;5071612;28;20076;-61
2023/08/11 05:28:48;;;;;;;2.35;1.30;;;21.00;72.20;;;;;;5072100;28;20051;-61
2023/08/11 05:31:13;;;;;;;2.63;1.48;;;21.00;72.20;;;;;;5072477;28;20055;-62
2023/08/11 05:33:39;;;;;;;2.42;1.40;;;21.00;72.20;;;;;;5069969;28;20059;-62
2023/08/11 05:36:04;;;;;;;2.15;1.40;;;21.00;72.10;;;;;;5072686;28;20484;-62
2023/08/11 05:38:30;;;;;;;2.88;1.40;;;21.00;72.10;;;;;;5072461;28;20044;-62
2023/08/11 05:40:56;;;;;;;2.38;1.40;;;21.10;72.10;;;;;;5071251;28;20396;-62
2023/08/11 05:43:21;;;;;;;1.80;1.17;;;21.10;72.10;;;;;;5070953;28;20135;-62
2023/08/11 05:45:47;;;;;;;2.17;1.40;;;21.10;72.10;;;;;;5072179;28;20049;-62
2023/08/11 05:48:13;;;;;;;2.13;1.30;;;21.10;72.00;;;;;;5071591;28;20149;-62
2023/08/11 05:50:39;;;;;;;2.15;1.23;;;21.10;72.00;;;;;;5071998;28;20036;-62
2023/08/11 05:53:05;;;;;;;1.92;1.30;;;21.10;72.00;;;;;;5071622;28;20076;-62
2023/08/11 05:55:30;;;;;;;1.65;1.25;;;21.10;72.00;;;;;;5071123;28;20079;-62
2023/08/11 05:57:56;;;;;;;1.83;1.30;;;21.10;72.00;;;;;;5070559;28;20491;-62
2023/08/11 06:00:22;;;;;;;2.55;1.58;;;21.10;71.90;;;;;;5070141;28;20063;-62
2023/08/11 06:02:47;;;;;;;1.38;1.17;;;21.10;71.90;;;;;;5071966;28;20032;-62
2023/08/11 06:05:13;;;;;;;3.13;1.25;;;21.10;71.90;;;;;;5072400;28;20049;-62
2023/08/11 06:07:39;;;;;;;2.17;1.30;;;21.10;71.90;;;;;;5071100;28;20036;-62
2023/08/11 06:10:05;;;;;;;1.88;1.15;;;21.10;71.90;;;;;;5071716;28;20044;-61
2023/08/11 06:12:31;;;;;;;1.73;1.10;;;21.10;72.00;;;;;;5070963;28;20471;-62
2023/08/11 06:14:56;;;;;;;1.92;1.05;;;21.10;72.00;;;;;;5071113;28;20048;-61
2023/08/11 06:17:22;;;;;;;2.70;1.40;;;21.10;72.00;;;;;;5071985;28;20041;-62
2023/08/11 06:19:48;;;;;;;1.88;1.13;;;21.10;72.00;;;;;;5071916;28;20502;-61
2023/08/11 06:22:13;;;;;;;2.05;1.50;;;21.10;72.10;;;;;;5070466;28;20044;-62
2023/08/11 06:24:39;;;;;;;1.67;1.30;;;21.10;72.10;;;;;;5053634;28;20124;-62
2023/08/11 06:27:05;;;;;;;2.10;1.40;;;21.10;72.10;;;;;;5071335;28;20033;-62
2023/08/11 06:29:30;;;;;;;4.82;1.70;;;21.10;72.20;;;;;;5070791;28;20102;-62
2023/08/11 06:31:56;;;;;;;2.63;1.45;;;21.10;72.20;;;;;;5071086;28;20480;-62
2023/08/11 06:34:22;;;;;;;4.10;1.48;;;21.10;72.10;;;;;;5081465;28;20109;-62
2023/08/11 06:36:47;;;;;;;4.82;1.50;;;21.10;72.10;;;;;;5094456;28;20044;-62
2023/08/11 06:39:13;;;;;;;5.22;1.77;;;21.10;72.10;;;;;;5075667;28;20475;-60
2023/08/11 06:41:39;;;;;;;4.75;1.50;;;21.10;72.10;;;;;;5075051;28;20098;-61
2023/08/11 06:44:07;;;;;;;5.30;1.40;;;21.20;72.30;;;;;;5074288;28;20045;-63
2023/08/11 06:46:33;;;;;;;7.18;1.70;;;21.20;72.30;;;;;;5075710;28;20036;-63
2023/08/11 06:48:59;;;;;;;5.47;1.80;;;21.20;72.30;;;;;;5075447;28;20446;-62
2023/08/11 06:51:24;;;;;;;3.90;1.60;;;21.20;72.30;;;;;;5074857;28;20094;-61
2023/08/11 06:53:50;;;;;;;3.78;1.45;;;21.20;72.40;;;;;;5075184;28;20127;-61
2023/08/11 06:56:15;;;;;;;5.38;1.75;;;21.30;72.40;;;;;;5074495;28;20131;-62
2023/08/11 06:58:41;;;;;;;6.13;1.65;;;21.30;72.50;;;;;;5074380;28;20040;-63
2023/08/11 07:01:07;;;;;;;3.35;1.75;;;21.30;72.50;;;;;;5074418;28;20060;-63
2023/08/11 07:03:33;;;;;;;4.35;1.50;;;21.30;72.50;;;;;;5084733;28;20044;-62
2023/08/11 07:06:00;;;;;;;5.07;1.70;;;21.30;72.50;;;;;;5072390;28;20708;-63
2023/08/11 07:08:26;;;;;;;5.00;1.60;;;21.30;72.60;;;;;;5072642;28;20071;-63
2023/08/11 07:10:51;;;;;;;5.05;1.90;;;21.30;72.70;;;;;;5068804;28;20109;-62
2023/08/11 07:13:17;;;;;;;4.35;1.77;;;21.30;72.70;;;;;;5070640;28;20044;-62
2023/08/11 07:15:42;;;;;;;3.95;1.77;;;21.40;72.80;;;;;;5063125;28;20072;-63
2023/08/11 07:18:09;;;;;;;3.88;1.63;;;21.40;72.80;;;;;;5067055;28;20046;-62
2023/08/11 07:20:36;;;;;;;3.00;1.40;;;21.40;72.90;;;;;;5070005;28;20037;-62
2023/08/11 07:23:02;;;;;;;2.92;1.58;;;21.40;72.90;;;;;;5072814;28;20059;-63
2023/08/11 07:25:28;;;;;;;3.97;1.80;;;21.40;72.90;;;;;;5073376;28;20040;-62
2023/08/11 07:27:54;;;;;;;5.53;1.60;;;21.40;72.80;;;;;;5074466;28;20139;-62
2023/08/11 07:30:20;;;;;;;2.45;1.50;;;21.50;72.90;;;;;;5074874;28;20452;-62
2023/08/11 07:32:46;;;;;;;5.03;1.55;;;21.50;72.80;;;;;;5071867;28;20052;-63
2023/08/11 07:35:12;;;;;;;2.53;1.33;;;21.50;72.80;;;;;;5074228;28;20082;-62
2023/08/11 07:37:38;;;;;;;4.88;1.58;;;21.50;72.80;;;;;;5074290;28;20076;-62
2023/08/11 07:40:04;;;;;;;3.15;1.48;;;21.50;72.90;;;;;;5073974;28;20496;-64
2023/08/11 07:42:30;;;;;;;4.35;1.90;;;21.50;73.00;;;;;;5074335;28;20119;-63
2023/08/11 07:44:56;;;;;;;4.30;1.50;;;21.50;73.00;;;;;;5073862;28;20148;-64
2023/08/11 07:47:21;;;;;;;3.92;1.45;;;21.50;72.80;;;;;;5072290;28;20048;-67
2023/08/11 07:49:47;;;;;;;6.10;1.73;;;21.50;72.80;;;;;;5074415;28;20044;-65
2023/08/11 07:52:13;;;;;;;2.53;1.40;;;21.50;72.80;;;;;;5073256;28;20124;-64
2023/08/11 07:54:38;;;;;;;4.85;1.65;;;21.50;72.70;;;;;;5071920;28;20052;-63
2023/08/11 07:57:04;;;;;;;4.10;1.85;;;21.60;72.70;;;;;;5074030;28;20036;-64
2023/08/11 07:59:30;;;;;;;4.30;1.40;;;21.60;72.70;;;;;;5074172;28;20468;-64
2023/08/11 08:01:55;;;;;;;5.30;1.70;;;21.60;72.70;;;;;;5073090;28;20046;-63
2023/08/11 08:04:21;;;;;;;8.05;1.60;;;21.60;72.70;;;;;;5074091;28;20484;-63
2023/08/11 08:06:47;;;;;;;3.83;1.67;;;21.60;73.30;;;;;;5073220;28;20074;-63
2023/08/11 08:09:14;;;;;;;6.10;2.00;;;21.60;72.60;;;;;;5074213;28;20044;-63
2023/08/11 08:11:42;;;;;;;2.35;1.58;;;21.60;72.70;;;;;;5073775;28;20024;-63
2023/08/11 08:14:08;;;;;;;7.10;1.95;;;21.60;72.40;;;;;;5073275;28;20036;-64
2023/08/11 08:16:34;;;;;;;3.22;1.83;;;21.60;72.20;;;;;;5071794;28;20102;-62
2023/08/11 08:18:59;;;;;;;4.25;2.15;;;21.60;72.00;;;;;;5068143;28;20040;-63
2023/08/11 08:21:25;;;;;;;4.38;1.90;;;21.60;71.80;;;;;;5072241;28;20032;-64
2023/08/11 08:23:50;;;;;;;5.35;2.08;;;21.60;71.70;;;;;;5073092;28;20113;-63
2023/08/11 08:26:16;;;;;;;4.72;2.00;;;21.60;71.50;;;;;;5073257;28;20029;-64
2023/08/11 08:28:42;;;;;;;5.55;1.95;;;21.60;71.40;;;;;;5072295;28;20541;-64
2023/08/11 08:31:07;;;;;;;4.68;2.20;;;21.60;71.40;;;;;;5073186;28;20039;-64
2023/08/11 08:33:33;;;;;;;6.07;2.30;;;21.60;71.30;;;;;;5071612;28;20056;-64
2023/08/11 08:35:58;;;;;;;9.60;2.60;;;21.60;71.30;;;;;;5072065;28;20040;-63
2023/08/11 08:38:24;;;;;;;3.95;2.08;;;21.60;71.20;;;;;;5073356;28;20415;-64
2023/08/11 08:40:49;;;;;;;5.85;2.67;;;21.60;71.10;;;;;;5071748;28;20134;-64
2023/08/11 08:43:16;;;;;;;7.55;2.15;;;21.60;71.20;;;;;;5072583;28;20124;-64
2023/08/11 08:45:43;;;;;;;5.70;2.30;;;21.60;71.20;;;;;;5071953;28;20037;-64
2023/08/11 08:48:11;;;;;;;3.92;2.05;;;21.60;71.10;;;;;;5072919;28;20044;-63
2023/08/11 08:50:37;;;;;;;7.85;2.50;;;21.60;71.00;;;;;;5054802;28;20044;-64
2023/08/11 08:53:03;;;;;;;7.45;2.08;;;21.60;71.00;;;;;;5071911;28;20036;-63
2023/08/11 08:55:28;;;;;;;4.95;2.40;;;21.60;70.90;;;;;;5071843;28;20053;-64
2023/08/11 08:57:54;;;;;;;4.03;2.13;;;21.60;70.90;;;;;;5071113;28;20408;-63
2023/08/11 09:00:20;;;;;;;4.68;2.08;;;21.70;70.90;;;;;;5073118;28;20443;-64
2023/08/11 09:02:46;;;;;;;8.18;2.45;;;21.60;70.90;;;;;;5071481;28;20048;-64
2023/08/11 09:05:12;;;;;;;4.35;2.13;;;21.70;70.90;;;;;;5053931;28;20043;-64
2023/08/11 09:07:38;;;;;;;5.30;2.50;;;21.60;71.40;;;;;;5073032;28;20044;-63
2023/08/11 09:10:04;;;;;;;5.80;2.25;;;21.70;70.90;;;;;;5071163;28;20052;-64
2023/08/11 09:12:30;;;;;;;4.68;2.40;;;21.70;70.70;;;;;;5073203;28;20089;-63
2023/08/11 09:14:58;;;;;;;6.47;2.55;;;21.70;70.70;;;;;;5072822;28;20462;-64
2023/08/11 09:17:24;;;;;;;5.85;2.28;;;21.70;70.70;;;;;;5072036;28;20496;-65
2023/08/11 09:19:51;;;;;;;9.43;2.40;;;21.70;70.60;;;;;;5072555;28;20404;-68
2023/08/11 09:22:16;;;;;;;7.85;2.55;;;21.70;70.60;;;;;;5071559;28;20545;-67
2023/08/11 09:24:45;;;;;;;4.55;2.20;;;21.70;70.50;;;;;;5070396;28;20044;-63
2023/08/11 09:27:11;;;;;;;6.38;2.40;;;21.80;70.60;;;;;;5069598;28;20047;-62
2023/08/11 09:29:37;;;;;;;7.65;2.58;;;21.80;70.60;;;;;;5066102;28;20049;-65
2023/08/11 09:32:04;;;;;;;7.50;2.58;;;21.70;70.50;;;;;;5071508;28;20080;-61
2023/08/11 09:34:29;;;;;;;7.55;2.38;;;21.80;70.50;;;;;;5071521;28;20082;-61
2023/08/11 09:36:55;;;;;;;5.80;2.30;;;21.80;70.40;;;;;;5070966;28;20477;-60
2023/08/11 09:39:21;;;;;;;5.68;2.40;;;21.80;70.10;;;;;;5070357;28;20051;-61
2023/08/11 09:41:47;;;;;;;8.05;2.40;;;21.90;70.00;;;;;;5071980;28;20047;-61
2023/08/11 09:44:17;;;;;;;6.93;2.63;;;21.90;69.90;;;;;;5072758;28;20040;-62
2023/08/11 09:46:43;;;;;;;4.78;2.15;;;22.00;69.90;;;;;;5071406;28;20075;-61
2023/08/11 09:49:08;;;;;;;4.97;2.08;;;22.00;69.90;;;;;;5072031;28;20087;-60
2023/08/11 09:51:37;;;;;;;10.73;2.53;;;22.10;69.90;;;;;;5071976;28;20131;-60
2023/08/11 09:54:08;;;;;;;5.97;2.15;;;22.10;70.00;;;;;;5070242;28;20052;-60
2023/08/11 09:56:35;;;;;;;5.30;2.00;;;22.10;70.00;;;;;;5071925;28;20071;-60
2023/08/11 09:59:05;;;;;;;6.82;2.08;;;22.10;70.10;;;;;;5071175;28;20634;-63
2023/08/11 10:01:33;;;;;;;4.32;1.75;;;22.10;70.10;;;;;;5070133;28;20098;-63
2023/08/11 10:03:59;;;;;;;5.05;2.05;;;22.10;70.10;;;;;;5053804;28;20127;-64
2023/08/11 10:06:28;;;;;;;4.97;2.55;;;22.00;70.10;;;;;;5070093;28;20436;-63
2023/08/11 10:08:54;;;;;;;10.30;3.00;;;22.00;70.10;;;;;;5057025;28;20079;-64
2023/08/11 10:11:20;;;;;;;10.32;3.20;;;22.00;70.00;;;;;;5075251;28;20083;-63
2023/08/11 10:13:45;;;;;;;8.57;3.10;;;22.10;69.80;;;;;;5074188;28;20052;-63
2023/08/11 10:16:12;;;;;;;8.23;2.92;;;22.00;69.60;;;;;;5058703;28;20029;-63
2023/08/11 10:18:39;;;;;;;8.00;3.00;;;22.10;69.40;;;;;;5058447;28;20055;-63
2023/08/11 10:21:05;;;;;;;6.90;2.83;;;22.10;69.20;;;;;;5073946;28;20404;-64
2023/08/11 10:23:31;;;;;;;5.88;2.75;;;22.10;69.20;;;;;;5076286;28;20040;-63
2023/08/11 10:25:56;;;;;;;6.55;2.80;;;22.10;69.20;;;;;;5074757;28;20400;-64
2023/08/11 10:28:22;;;;;;;5.90;2.65;;;22.10;69.10;;;;;;5057320;28;20078;-63
2023/08/11 10:31:01;;;;;;;7.90;2.88;;;22.20;68.90;;;;;;5057618;28;20047;-67
2023/08/11 10:33:30;;;;;;;6.63;2.90;;;22.20;68.80;;;;;;5074307;28;20060;-63
2023/08/11 10:35:57;;;;;;;5.75;3.00;;;22.20;69.10;;;;;;5075121;28;20403;-62
2023/08/11 10:38:29;;;;;;;5.45;2.58;;;22.20;69.40;;;;;;5074885;28;20060;-63
2023/08/11 10:41:10;;;;;;;7.35;3.10;;;22.20;69.70;;;;;;5074451;28;20123;-63
2023/08/11 10:43:38;;;;;;;7.22;3.13;;;22.20;70.40;;;;;;5074684;28;20051;-62
2023/08/11 10:46:29;;;;;;;7.22;2.38;;;22.20;70.40;;;;;;5075933;28;20087;-63
2023/08/11 10:48:59;;;;;;;6.68;2.90;;;22.20;70.50;;;;;;5074996;28;20055;-63
2023/08/11 10:51:32;;;;;;;5.72;3.05;;;22.20;71.40;;;;;;5074570;28;20049;-63
2023/08/11 10:54:06;;;;;;;6.35;2.83;;;22.20;70.90;;;;;;5075193;28;20127;-64
2023/08/11 10:56:33;;;;;;;6.07;2.75;;;22.20;71.60;;;;;;5073629;28;20052;-63
2023/08/11 10:59:05;;;;;;;6.03;2.78;;;22.20;70.80;;;;;;5074283;28;20057;-63
2023/08/11 11:01:41;;;;;;;4.90;2.45;;;22.20;70.90;;;;;;5071718;28;20131;-65
2023/08/11 11:04:07;;;;;;;5.78;2.55;;;22.20;71.00;;;;;;5074145;28;20048;-64
2023/08/11 11:06:33;;;;;;;7.47;2.88;;;22.20;71.10;;;;;;5073249;28;20044;-64
2023/08/11 11:08:59;;;;;;;7.03;2.63;;;22.20;71.10;;;;;;5072266;28;20055;-63
2023/08/11 11:11:24;;;;;;;5.38;2.97;;;22.20;71.20;;;;;;5074101;28;20036;-64
2023/08/11 11:13:51;;;;;;;5.43;2.50;;;22.20;71.20;;;;;;5073235;28;20187;-61
2023/08/11 11:16:17;;;;;;;6.65;2.50;;;22.20;71.20;;;;;;5074823;28;20040;-63
2023/08/11 11:18:45;;;;;;;6.07;2.40;;;22.20;71.30;;;;;;5073551;28;20063;-64
2023/08/11 11:21:15;;;;;;;5.35;2.38;;;22.20;71.20;;;;;;5074422;28;20047;-64
2023/08/11 11:23:45;;;;;;;6.80;2.40;;;22.20;71.30;;;;;;5073385;28;20082;-64
2023/08/11 11:26:10;;;;;;;6.82;2.20;;;22.20;71.20;;;;;;5074527;28;20483;-64
2023/08/11 11:28:36;;;;;;;7.97;2.72;;;22.20;71.30;;;;;;5074099;28;20044;-64
2023/08/11 11:31:01;;;;;;;4.90;2.20;;;22.20;71.30;;;;;;5072701;28;20040;-64
2023/08/11 11:33:28;;;;;;;5.93;2.45;;;22.20;71.30;;;;;;5073928;28;20061;-63
2023/08/11 11:35:53;;;;;;;7.07;2.42;;;22.20;71.30;;;;;;5073202;28;20409;-63
2023/08/11 11:38:19;;;;;;;6.88;2.72;;;22.20;71.20;;;;;;5073569;28;20033;-63
2023/08/11 11:40:44;;;;;;;4.15;2.20;;;22.20;71.30;;;;;;5073552;28;20475;-63
2023/08/11 11:43:10;;;;;;;7.07;2.38;;;22.20;71.30;;;;;;5074546;28;20051;-64
2023/08/11 11:45:36;;;;;;;6.35;2.53;;;22.20;71.20;;;;;;5073534;28;20376;-64
2023/08/11 11:48:01;;;;;;;5.15;2.00;;;22.20;71.20;;;;;;5073226;28;20545;-64
2023/08/11 11:50:29;;;;;;;5.53;2.75;;;22.20;71.20;;;;;;5073045;28;20037;-64
2023/08/11 11:52:54;;;;;;;5.70;2.60;;;22.20;71.20;;;;;;5055545;28;20411;-64
2023/08/11 11:55:20;;;;;;;6.72;2.65;;;22.20;71.20;;;;;;5074548;28;20033;-64
2023/08/11 11:57:45;;;;;;;4.03;2.25;;;22.20;71.20;;;;;;5056051;28;20033;-64
2023/08/11 12:00:16;;;;;;;4.95;1.98;;;22.20;71.20;;;;;;5073614;28;20045;-64
2023/08/11 12:02:51;;;;;;;4.95;2.25;;;22.30;71.20;;;;;;5073627;28;20053;-64
2023/08/11 12:05:16;;;;;;;4.65;2.10;;;22.30;71.20;;;;;;5074720;28;20545;-63
2023/08/11 12:07:43;;;;;;;5.25;2.00;;;22.20;71.10;;;;;;5071945;28;20072;-64
2023/08/11 12:10:08;;;;;;;5.30;2.45;;;22.20;71.10;;;;;;5072781;28;20075;-64
2023/08/11 12:12:35;;;;;;;5.63;2.30;;;22.30;71.20;;;;;;5073694;28;20080;-64
2023/08/11 12:15:07;;;;;;;4.85;1.95;;;22.30;71.20;;;;;;5073441;28;20067;-64
2023/08/11 12:17:33;;;;;;;6.00;2.40;;;22.30;71.20;;;;;;5073776;28;20052;-63
2023/08/11 12:20:03;;;;;;;4.80;2.33;;;22.30;71.10;;;;;;5073305;28;20047;-63
2023/08/11 12:22:29;;;;;;;6.30;2.50;;;22.30;71.10;;;;;;5073600;28;20488;-64
2023/08/11 12:24:55;;;;;;;5.78;2.40;;;22.30;71.10;;;;;;5053475;28;20049;-64
2023/08/11 12:27:20;;;;;;;3.75;1.95;;;22.30;71.10;;;;;;5071166;28;20028;-63
2023/08/11 12:29:46;;;;;;;4.03;2.00;;;22.30;71.10;;;;;;5073520;28;20049;-62
2023/08/11 12:32:12;;;;;;;5.88;2.08;;;22.30;71.00;;;;;;5073093;28;20045;-63
2023/08/11 12:34:38;;;;;;;4.55;1.90;;;22.30;71.10;;;;;;5072552;28;20137;-63
2023/08/11 12:37:03;;;;;;;6.18;2.05;;;22.30;71.10;;;;;;5072451;28;20090;-63
2023/08/11 12:39:29;;;;;;;5.50;2.58;;;22.30;71.00;;;;;;5072352;28;20053;-64
2023/08/11 12:41:55;;;;;;;4.82;1.95;;;22.30;71.00;;;;;;5072353;28;20384;-64
2023/08/11 12:44:20;;;;;;;5.45;2.40;;;22.30;71.00;;;;;;5073436;28;20096;-64